Time;durP1;ratioP1;P1;durP2;ratioP2;P2;SDS_P1;SDS_P2;PMS_P1;PMS_P2;Temp;Humidity;BMP_temperature;BMP_pressure;BME280_temperature;BME280_humidity;BME280_pressure;Samples;Min_cycle;Max_cycle;Signal;HPM_P1;HPM_P2
2022/05/30 00:00:50;;;;;;;1.90;1.70;;;18.70;55.70;20.10;100451.00;;;;4987199;28;20618;-44
2022/05/30 00:03:17;;;;;;;2.20;1.90;;;18.70;55.70;20.10;100446.00;;;;4987773;28;20165;-45
2022/05/30 00:05:48;;;;;;;2.10;1.90;;;18.70;55.70;20.10;100452.00;;;;4987520;28;20169;-45
2022/05/30 00:08:15;;;;;;;1.90;1.70;;;18.70;55.70;20.10;100446.00;;;;4987495;28;20752;-45
2022/05/30 00:10:41;;;;;;;1.90;1.80;;;18.70;55.70;20.10;100435.00;;;;4987451;28;20196;-45
2022/05/30 00:13:06;;;;;;;2.33;1.70;;;18.70;55.70;20.10;100444.00;;;;4988819;28;20172;-45
2022/05/30 00:15:32;;;;;;;2.27;1.80;;;18.70;55.70;20.10;100447.00;;;;4996125;28;20215;-45
2022/05/30 00:17:58;;;;;;;2.20;1.90;;;18.70;55.70;20.00;100450.00;;;;4993151;28;20209;-45
2022/05/30 00:20:24;;;;;;;2.27;1.90;;;18.60;55.60;20.00;100447.00;;;;4990467;28;20848;-45
2022/05/30 00:22:50;;;;;;;2.00;1.70;;;18.60;55.60;20.00;100455.00;;;;4990785;28;20230;-44
2022/05/30 00:25:15;;;;;;;2.00;1.80;;;18.60;55.60;20.00;100442.00;;;;4989534;28;20168;-46
2022/05/30 00:27:43;;;;;;;3.07;1.60;;;18.60;55.70;20.00;100443.00;;;;4989228;28;20235;-45
2022/05/30 00:30:09;;;;;;;2.20;1.90;;;18.60;55.70;20.00;100448.00;;;;4990871;28;20200;-44
2022/05/30 00:32:35;;;;;;;2.57;1.70;;;18.60;55.70;20.00;100437.00;;;;4990654;28;20339;-43
2022/05/30 00:35:01;;;;;;;1.80;1.70;;;18.60;55.70;20.00;100442.00;;;;4990374;28;20645;-46
2022/05/30 00:37:27;;;;;;;2.00;1.80;;;18.60;55.70;19.90;100436.00;;;;4990054;28;20235;-46
2022/05/30 00:39:53;;;;;;;1.90;1.80;;;18.50;55.60;19.90;100432.00;;;;4990431;28;20160;-44
2022/05/30 00:42:21;;;;;;;2.03;1.70;;;18.50;55.70;19.90;100435.00;;;;4990398;28;20208;-44
2022/05/30 00:44:48;;;;;;;2.33;1.93;;;18.50;55.60;19.90;100435.00;;;;4990303;28;20664;-45
2022/05/30 00:47:14;;;;;;;3.30;2.00;;;18.50;55.70;19.90;100438.00;;;;4989959;28;20175;-44
2022/05/30 00:49:42;;;;;;;2.07;1.87;;;18.50;55.70;19.90;100428.00;;;;4990578;28;20255;-45
2022/05/30 00:52:09;;;;;;;1.90;1.73;;;18.40;56.40;19.80;100408.00;;;;4990219;28;20821;-46
2022/05/30 00:54:52;;;;;;;2.73;1.97;;;18.40;56.30;19.80;100423.00;;;;4973350;28;20233;-44
2022/05/30 00:57:22;;;;;;;2.77;1.80;;;18.40;56.30;19.80;100427.00;;;;4988826;28;20282;-46
2022/05/30 00:59:58;;;;;;;4.00;1.90;;;18.40;56.30;19.70;100420.00;;;;4990311;28;20314;-46
2022/05/30 01:02:29;;;;;;;2.73;1.90;;;18.40;56.40;19.70;100417.00;;;;4989924;28;20155;-45
2022/05/30 01:07:41;;;;;;;1.70;1.60;;;18.30;56.30;19.60;100424.00;;;;4974970;28;20182;-45
2022/05/30 01:10:09;;;;;;;2.67;1.80;;;18.30;56.30;19.60;100431.00;;;;4973096;28;20196;-46
2022/05/30 01:12:52;;;;;;;2.17;1.87;;;18.30;56.30;19.60;100421.00;;;;4989661;28;20684;-45
2022/05/30 01:15:21;;;;;;;2.93;1.90;;;18.30;56.40;19.60;100408.00;;;;4990043;28;20254;-46
2022/05/30 01:18:07;;;;;;;2.03;1.70;;;18.30;56.40;19.60;100412.00;;;;4989539;28;20206;-45
2022/05/30 01:20:39;;;;;;;1.70;1.60;;;18.30;56.30;19.60;100418.00;;;;4988691;28;20615;-44
2022/05/30 01:23:41;;;;;;;2.23;2.00;;;18.30;56.30;19.60;100412.00;;;;4989761;28;20962;-45
2022/05/30 01:26:38;;;;;;;1.83;1.73;;;18.30;56.30;19.60;100415.00;;;;4989116;28;20266;-46
2022/05/30 01:29:20;;;;;;;2.47;1.90;;;18.30;56.30;19.50;100409.00;;;;4995068;28;20234;-43
2022/05/30 01:31:46;;;;;;;2.57;1.80;;;18.30;56.20;19.50;100414.00;;;;4977584;28;20199;-45
2022/05/30 01:34:12;;;;;;;2.10;1.80;;;18.30;56.20;19.50;100406.00;;;;4989518;28;20245;-44
2022/05/30 01:36:37;;;;;;;2.90;1.90;;;18.30;56.10;19.50;100407.00;;;;4989188;28;22072;-44
2022/05/30 01:39:03;;;;;;;1.87;1.70;;;18.20;56.00;19.50;100403.00;;;;4989191;28;20178;-45
2022/05/30 01:41:29;;;;;;;2.27;1.60;;;18.30;56.10;19.50;100406.00;;;;4987868;28;20669;-44
2022/05/30 01:43:55;;;;;;;2.30;1.80;;;18.20;55.90;19.50;100403.00;;;;4989256;28;20226;-45
2022/05/30 01:46:22;;;;;;;2.00;1.80;;;18.20;56.00;19.50;100401.00;;;;4989132;28;20176;-44
2022/05/30 01:48:48;;;;;;;2.00;1.80;;;18.20;55.80;19.50;100394.00;;;;4987596;28;20186;-44
2022/05/30 01:51:18;;;;;;;1.77;1.63;;;18.20;55.80;19.50;100397.00;;;;4988701;28;20192;-47
2022/05/30 01:53:45;;;;;;;2.73;1.70;;;18.20;55.90;19.50;100394.00;;;;4988963;28;20168;-46
2022/05/30 01:56:10;;;;;;;1.77;1.67;;;18.20;55.80;19.50;100385.00;;;;4989386;28;20185;-45
2022/05/30 01:58:36;;;;;;;2.07;1.87;;;18.20;55.90;19.50;100387.00;;;;4987425;28;20676;-44
2022/05/30 02:01:12;;;;;;;2.17;1.60;;;18.20;55.90;19.50;100390.00;;;;4988791;28;20200;-44
2022/05/30 02:03:37;;;;;;;1.77;1.67;;;18.10;55.90;19.50;100390.00;;;;4988724;28;20232;-44
2022/05/30 02:06:03;;;;;;;1.90;1.70;;;18.10;56.00;19.50;100399.00;;;;4988808;28;20180;-45
2022/05/30 02:08:29;;;;;;;2.00;1.70;;;18.10;55.90;19.50;100393.00;;;;4988189;28;20181;-45
2022/05/30 02:10:54;;;;;;;2.23;1.80;;;18.10;55.90;19.50;100396.00;;;;4988704;28;20206;-45
2022/05/30 02:13:20;;;;;;;1.90;1.70;;;18.10;55.90;19.40;100397.00;;;;4988671;28;20617;-45
2022/05/30 02:18:30;;;;;;;1.70;1.60;;;18.10;55.90;19.40;100391.00;;;;4988562;28;20248;-44
2022/05/30 02:20:55;;;;;;;1.90;1.70;;;18.10;55.90;19.40;100387.00;;;;4988328;28;20222;-45
2022/05/30 02:23:21;;;;;;;2.93;1.90;;;18.00;55.90;19.40;100381.00;;;;4988495;28;20172;-45
2022/05/30 02:25:48;;;;;;;1.63;1.53;;;18.00;56.00;19.40;100382.00;;;;4994698;28;20185;-47
2022/05/30 02:28:14;;;;;;;1.67;1.57;;;18.00;56.00;19.40;100386.00;;;;4995359;28;20188;-44
2022/05/30 02:30:39;;;;;;;1.87;1.57;;;18.00;55.90;19.40;100383.00;;;;4990207;28;20200;-46
2022/05/30 02:38:34;;;;;;;1.70;1.60;;;18.00;55.90;19.40;100376.00;;;;4988171;28;20199;-46
2022/05/30 02:41:00;;;;;;;2.23;1.70;;;18.00;55.90;19.30;100379.00;;;;4988149;28;20196;-45
2022/05/30 02:43:25;;;;;;;1.87;1.53;;;17.90;56.00;19.30;100378.00;;;;4988258;28;20179;-46
2022/05/30 02:45:51;;;;;;;2.90;1.70;;;17.90;55.90;19.30;100390.00;;;;4988275;28;20178;-44
2022/05/30 02:48:17;;;;;;;2.90;1.80;;;17.90;55.90;19.30;100387.00;;;;4987980;28;20238;-47
2022/05/30 02:50:44;;;;;;;1.50;1.40;;;17.90;55.90;19.30;100394.00;;;;4988301;28;20795;-45
2022/05/30 02:53:10;;;;;;;1.90;1.70;;;17.90;55.90;19.30;100381.00;;;;4986940;28;20185;-45
2022/05/30 02:55:36;;;;;;;2.30;1.60;;;17.90;55.90;19.30;100385.00;;;;4988102;28;20179;-45
2022/05/30 02:58:02;;;;;;;1.80;1.70;;;17.90;55.90;19.30;100382.00;;;;4986653;28;20210;-45
2022/05/30 03:00:27;;;;;;;2.40;1.60;;;17.90;55.90;19.10;100379.00;;;;4987793;28;20671;-45
2022/05/30 03:02:53;;;;;;;4.67;1.83;;;17.90;56.00;19.30;100384.00;;;;4987936;28;20179;-44
2022/05/30 03:05:19;;;;;;;1.70;1.50;;;17.80;55.90;19.30;100383.00;;;;4985739;28;20259;-44
2022/05/30 03:07:44;;;;;;;2.93;1.60;;;17.90;56.00;19.20;100387.00;;;;4975806;28;20190;-44
2022/05/30 03:10:10;;;;;;;2.47;1.70;;;17.80;55.90;19.20;100385.00;;;;4987622;28;20535;-46
2022/05/30 03:12:36;;;;;;;2.50;1.77;;;17.80;55.90;19.20;100390.00;;;;4987467;28;20178;-44
2022/05/30 03:15:02;;;;;;;2.23;1.60;;;17.80;56.00;19.20;100386.00;;;;4987375;28;20190;-44
2022/05/30 03:17:27;;;;;;;1.70;1.60;;;17.80;55.90;19.20;100392.00;;;;4987272;28;20270;-46
2022/05/30 03:19:53;;;;;;;2.67;1.67;;;17.80;56.00;19.20;100311.00;;;;4987353;28;20176;-44
2022/05/30 03:22:19;;;;;;;5.03;1.80;;;17.80;56.00;19.20;100389.00;;;;4987327;28;20800;-46
2022/05/30 03:24:44;;;;;;;2.00;1.60;;;17.80;56.00;19.20;100388.00;;;;4987624;28;20219;-45
2022/05/30 03:27:10;;;;;;;2.53;1.73;;;17.80;56.00;19.20;100385.00;;;;4987539;28;20182;-45
2022/05/30 03:29:36;;;;;;;1.83;1.63;;;17.80;56.00;19.20;100392.00;;;;4987142;28;20641;-45
2022/05/30 03:32:01;;;;;;;2.40;1.80;;;17.80;56.10;18.90;100390.00;;;;4987051;28;20178;-45
2022/05/30 03:34:27;;;;;;;7.60;2.10;;;17.80;56.20;19.20;100388.00;;;;4987101;28;20229;-44
2022/05/30 03:36:53;;;;;;;2.70;1.80;;;17.70;56.50;19.10;100396.00;;;;4987232;28;20624;-45
2022/05/30 03:39:18;;;;;;;4.33;1.67;;;17.80;56.30;19.10;100391.00;;;;4987477;28;20639;-45
2022/05/30 03:41:45;;;;;;;11.60;2.07;;;17.80;56.20;19.10;100390.00;;;;4987177;28;20194;-45
2022/05/30 03:44:10;;;;;;;9.47;1.90;;;17.70;56.40;19.10;100394.00;;;;4986913;28;20181;-45
2022/05/30 03:46:36;;;;;;;8.43;2.00;;;17.70;56.20;19.10;100394.00;;;;4987220;28;20191;-44
2022/05/30 03:49:02;;;;;;;5.37;1.97;;;17.70;56.10;19.10;100401.00;;;;4988739;28;20180;-45
2022/05/30 03:51:27;;;;;;;4.60;1.90;;;17.70;56.00;19.10;100394.00;;;;4990855;28;20232;-46
2022/05/30 03:53:53;;;;;;;2.67;1.73;;;17.70;56.10;19.00;100397.00;;;;4990621;28;20176;-45
2022/05/30 03:56:19;;;;;;;3.57;1.77;;;17.70;56.00;19.00;100401.00;;;;4989603;28;20221;-44
2022/05/30 03:58:45;;;;;;;4.87;2.00;;;17.70;56.00;19.00;100393.00;;;;4990502;28;20206;-45
2022/05/30 04:01:11;;;;;;;1.93;1.70;;;17.70;56.00;19.00;100401.00;;;;4990716;28;20720;-46
2022/05/30 04:03:37;;;;;;;2.27;1.70;;;17.70;55.90;19.00;100401.00;;;;4990644;28;20184;-44
2022/05/30 04:06:03;;;;;;;3.50;1.80;;;17.60;55.80;19.00;100397.00;;;;4990942;28;20169;-46
2022/05/30 04:08:29;;;;;;;2.60;1.90;;;17.60;55.80;19.00;100403.00;;;;4979336;28;20196;-46
2022/05/30 04:10:55;;;;;;;4.83;1.50;;;17.70;55.80;19.00;100395.00;;;;4988058;28;20210;-44
2022/05/30 04:13:21;;;;;;;2.57;2.00;;;17.60;55.80;19.00;100404.00;;;;4990353;28;20174;-44
2022/05/30 04:15:46;;;;;;;1.80;1.70;;;17.70;55.90;19.00;100405.00;;;;4990479;28;20180;-46
2022/05/30 04:18:12;;;;;;;3.30;1.63;;;17.60;56.40;19.00;100409.00;;;;4989138;28;20219;-45
2022/05/30 04:20:40;;;;;;;2.83;1.70;;;17.60;55.80;19.00;100409.00;;;;4990784;28;20205;-44
2022/05/30 04:23:05;;;;;;;2.33;1.77;;;17.60;55.90;19.00;100399.00;;;;4990438;28;20169;-44
2022/05/30 04:25:31;;;;;;;2.33;1.70;;;17.60;56.00;19.00;100408.00;;;;4990175;28;20730;-45
2022/05/30 04:27:57;;;;;;;5.20;1.73;;;17.60;56.00;18.90;100417.00;;;;4989944;28;20664;-46
2022/05/30 04:30:23;;;;;;;2.50;1.63;;;17.50;56.30;19.00;100416.00;;;;4988958;28;20225;-45
2022/05/30 04:32:48;;;;;;;3.27;1.73;;;17.60;56.20;18.90;100364.00;;;;4990633;28;20180;-45
2022/05/30 04:35:14;;;;;;;2.50;1.50;;;17.60;56.20;18.90;100411.00;;;;4989859;28;20240;-45
2022/05/30 04:37:40;;;;;;;3.17;1.70;;;17.60;56.10;18.90;100415.00;;;;4988572;28;20295;-45
2022/05/30 04:40:08;;;;;;;2.23;1.57;;;17.60;56.10;18.90;100417.00;;;;4990585;28;20579;-46
2022/05/30 04:42:34;;;;;;;2.90;1.73;;;17.60;56.10;18.90;100415.00;;;;4973560;28;20347;-46
2022/05/30 04:45:00;;;;;;;2.13;1.80;;;17.50;55.90;18.90;100420.00;;;;4989749;28;20235;-46
2022/05/30 04:47:26;;;;;;;2.53;1.57;;;17.50;55.90;18.90;100344.00;;;;4989909;28;20816;-46
2022/05/30 04:49:51;;;;;;;2.20;1.80;;;17.50;55.90;18.90;100419.00;;;;4989788;28;20633;-46
2022/05/30 04:52:17;;;;;;;3.57;1.50;;;17.50;55.90;18.90;100409.00;;;;4990298;28;20183;-45
2022/05/30 04:54:43;;;;;;;2.67;1.80;;;17.60;56.00;18.90;100412.00;;;;4989526;28;20177;-46
2022/05/30 04:57:09;;;;;;;2.37;1.57;;;17.50;55.80;18.90;100415.00;;;;4989497;28;20200;-45
2022/05/30 04:59:37;;;;;;;1.60;1.50;;;17.50;55.80;18.90;100420.00;;;;4988074;28;20177;-45
2022/05/30 05:02:03;;;;;;;1.90;1.60;;;17.50;55.80;18.90;100417.00;;;;4987785;28;20178;-45
2022/05/30 05:04:29;;;;;;;1.67;1.57;;;17.50;55.80;18.90;100413.00;;;;4988935;28;20231;-44
2022/05/30 05:06:54;;;;;;;1.43;1.33;;;17.50;55.80;18.90;100422.00;;;;4987502;28;20185;-44
2022/05/30 05:09:55;;;;;;;3.17;1.50;;;17.50;55.80;18.90;100425.00;;;;4989631;28;20181;-45
2022/05/30 05:12:21;;;;;;;1.70;1.50;;;17.50;55.80;18.80;100423.00;;;;4978759;28;20687;-46
2022/05/30 05:14:46;;;;;;;1.57;1.47;;;17.50;55.80;18.80;100431.00;;;;4989398;28;20182;-45
2022/05/30 05:17:12;;;;;;;1.50;1.40;;;17.50;55.80;18.80;100433.00;;;;4989846;28;20212;-45
2022/05/30 05:19:39;;;;;;;1.40;1.30;;;17.50;55.70;18.80;100425.00;;;;4989808;28;20246;-45
2022/05/30 05:22:06;;;;;;;1.90;1.50;;;17.50;55.80;18.80;100435.00;;;;4989246;28;20295;-45
2022/05/30 05:24:32;;;;;;;2.97;1.80;;;17.40;55.70;18.80;100438.00;;;;4989275;28;20183;-45
2022/05/30 05:26:57;;;;;;;2.40;1.47;;;17.40;55.60;18.80;100439.00;;;;4989385;28;20556;-46
2022/05/30 05:29:23;;;;;;;1.90;1.70;;;17.40;55.60;18.80;100442.00;;;;4989085;28;20180;-44
2022/05/30 05:31:49;;;;;;;2.37;1.43;;;17.40;55.70;18.80;100448.00;;;;4988559;28;20205;-45
2022/05/30 05:34:15;;;;;;;1.50;1.40;;;17.40;55.60;18.80;100441.00;;;;4989141;28;20183;-45
2022/05/30 05:36:46;;;;;;;1.63;1.50;;;17.40;55.50;18.80;100449.00;;;;4988999;28;20549;-44
2022/05/30 05:39:12;;;;;;;2.30;1.40;;;17.40;55.60;18.80;100454.00;;;;4993644;28;20191;-44
2022/05/30 05:41:41;;;;;;;1.50;1.40;;;17.40;55.50;18.80;100441.00;;;;4992273;28;20201;-45
2022/05/30 05:44:07;;;;;;;1.57;1.47;;;17.40;55.60;18.80;100449.00;;;;4988973;28;20181;-45
2022/05/30 05:46:33;;;;;;;1.53;1.40;;;17.40;55.60;18.70;100454.00;;;;4988794;28;20230;-45
2022/05/30 05:48:59;;;;;;;1.67;1.57;;;17.40;55.60;18.70;100464.00;;;;4988747;28;20215;-46
2022/05/30 05:51:25;;;;;;;1.70;1.60;;;17.40;55.70;18.70;100458.00;;;;4988615;28;20196;-45
2022/05/30 05:53:52;;;;;;;1.77;1.60;;;17.30;55.60;18.70;100454.00;;;;4988823;28;20177;-45
2022/05/30 05:56:20;;;;;;;1.60;1.50;;;17.40;55.70;18.70;100458.00;;;;4988273;28;20927;-46
2022/05/30 05:58:46;;;;;;;1.50;1.40;;;17.40;55.70;18.70;100463.00;;;;4988659;28;20489;-45
2022/05/30 06:01:18;;;;;;;1.50;1.40;;;17.30;55.60;18.70;100459.00;;;;4986872;28;20204;-44
2022/05/30 06:03:44;;;;;;;2.50;1.50;;;17.30;55.60;18.70;100461.00;;;;4988876;28;20186;-46
2022/05/30 06:06:09;;;;;;;1.57;1.47;;;17.40;55.70;18.70;100459.00;;;;4988162;28;20177;-46
2022/05/30 06:08:35;;;;;;;1.50;1.40;;;17.40;55.60;18.70;100454.00;;;;4988409;28;20185;-45
2022/05/30 06:11:11;;;;;;;1.60;1.40;;;17.30;55.50;18.70;100464.00;;;;4987957;28;20192;-45
2022/05/30 06:13:45;;;;;;;1.53;1.40;;;17.40;55.60;18.70;100461.00;;;;4988403;28;20160;-45
2022/05/30 06:16:19;;;;;;;1.60;1.50;;;17.30;55.50;18.70;100459.00;;;;4988200;28;20175;-45
2022/05/30 06:18:46;;;;;;;1.50;1.30;;;17.30;55.50;18.70;100457.00;;;;4988204;28;20191;-45
2022/05/30 06:21:12;;;;;;;1.40;1.30;;;17.30;55.50;18.70;100459.00;;;;4987959;28;20215;-45
2022/05/30 06:23:38;;;;;;;1.37;1.30;;;17.30;55.50;18.70;100463.00;;;;4988274;28;20191;-44
2022/05/30 06:26:08;;;;;;;1.50;1.40;;;17.30;55.50;18.70;100461.00;;;;4986863;28;20183;-45
2022/05/30 06:28:37;;;;;;;1.50;1.40;;;17.30;55.50;18.60;100457.00;;;;4987861;28;20173;-45
2022/05/30 06:31:18;;;;;;;1.50;1.40;;;17.30;55.50;18.60;100471.00;;;;4987974;28;20285;-45
2022/05/30 06:33:43;;;;;;;1.37;1.27;;;17.30;55.50;18.60;100472.00;;;;4988083;28;20645;-46
2022/05/30 06:36:12;;;;;;;1.40;1.30;;;17.30;55.50;18.60;100476.00;;;;4987533;28;20202;-45
2022/05/30 06:38:37;;;;;;;1.20;1.20;;;17.30;55.50;18.60;100480.00;;;;4987651;28;20559;-45
2022/05/30 06:41:19;;;;;;;1.30;1.20;;;17.30;55.50;18.60;100482.00;;;;4988247;28;20230;-46
2022/05/30 06:43:44;;;;;;;1.53;1.43;;;17.30;55.50;18.60;100478.00;;;;4988197;28;20166;-46
2022/05/30 06:46:11;;;;;;;1.43;1.30;;;17.30;55.60;18.60;100485.00;;;;4987583;28;20174;-45
2022/05/30 06:48:37;;;;;;;1.80;1.47;;;17.30;55.60;18.60;100366.00;;;;4987752;28;20185;-45
2022/05/30 06:51:05;;;;;;;1.40;1.30;;;17.30;55.60;18.60;100491.00;;;;4987974;28;20197;-45
2022/05/30 06:53:31;;;;;;;1.50;1.40;;;17.30;55.60;18.60;100485.00;;;;4988000;28;20173;-45
2022/05/30 06:55:57;;;;;;;1.40;1.30;;;17.30;55.60;18.60;100491.00;;;;4987343;28;20680;-46
2022/05/30 06:58:23;;;;;;;1.53;1.43;;;17.30;55.60;18.60;100492.00;;;;4987563;28;20196;-45
2022/05/30 07:00:49;;;;;;;1.70;1.60;;;17.30;55.70;18.60;100498.00;;;;4987274;28;20201;-45
2022/05/30 07:03:14;;;;;;;1.40;1.30;;;17.30;55.70;18.60;100498.00;;;;4987726;28;20823;-46
2022/05/30 07:05:41;;;;;;;1.40;1.30;;;17.20;55.60;18.50;100495.00;;;;4987173;28;20633;-45
2022/05/30 07:08:07;;;;;;;1.20;1.20;;;17.20;55.60;18.60;100433.00;;;;4970517;28;20176;-43
2022/05/30 07:10:35;;;;;;;1.50;1.40;;;17.20;55.60;18.50;100497.00;;;;4987682;28;20654;-45
2022/05/30 07:13:01;;;;;;;1.47;1.30;;;17.20;55.70;18.50;100505.00;;;;4986656;28;20172;-45
2022/05/30 07:15:27;;;;;;;1.50;1.40;;;17.20;55.70;18.50;100497.00;;;;4986140;28;20184;-45
2022/05/30 07:17:53;;;;;;;1.50;1.40;;;17.20;55.70;18.50;100503.00;;;;4987132;28;20282;-45
2022/05/30 07:20:18;;;;;;;1.50;1.40;;;17.20;55.70;18.50;100503.00;;;;4986523;28;20207;-45
2022/05/30 07:22:44;;;;;;;1.80;1.57;;;17.20;55.70;18.50;100513.00;;;;4987413;28;20676;-45
2022/05/30 07:25:10;;;;;;;1.50;1.40;;;17.20;55.70;18.50;100500.00;;;;4990656;28;20183;-46
2022/05/30 07:27:36;;;;;;;1.60;1.50;;;17.20;55.70;18.50;100512.00;;;;4989851;28;20188;-45
2022/05/30 07:30:02;;;;;;;4.83;1.53;;;17.20;55.70;18.50;100514.00;;;;4990201;28;20201;-44
2022/05/30 07:32:29;;;;;;;10.33;1.80;;;17.20;55.90;18.50;100514.00;;;;4990342;28;20180;-44
2022/05/30 07:34:55;;;;;;;3.20;1.70;;;17.20;56.50;18.50;100514.00;;;;4991382;28;20223;-45
2022/05/30 07:37:21;;;;;;;6.80;1.67;;;17.20;56.00;18.50;100512.00;;;;4990043;28;20192;-45
2022/05/30 07:39:47;;;;;;;5.10;1.67;;;17.20;55.90;18.50;100509.00;;;;4848439;28;20215;-45
2022/05/30 07:42:13;;;;;;;5.90;1.57;;;17.20;55.90;18.50;100505.00;;;;4990363;28;20617;-44
2022/05/30 07:44:39;;;;;;;3.73;1.73;;;17.20;56.30;18.50;100506.00;;;;4991208;28;20168;-46
2022/05/30 07:47:06;;;;;;;4.70;1.60;;;17.30;56.30;18.50;100508.00;;;;4991094;28;20191;-44
2022/05/30 07:49:32;;;;;;;4.70;1.93;;;17.20;56.30;18.50;100505.00;;;;4991250;28;20185;-43
2022/05/30 07:51:58;;;;;;;1.90;1.60;;;17.20;56.40;18.50;100510.00;;;;4991225;28;20283;-45
2022/05/30 07:54:24;;;;;;;2.43;1.60;;;17.20;56.40;18.50;100512.00;;;;4991419;28;20184;-45
2022/05/30 07:56:49;;;;;;;3.20;1.50;;;17.20;56.40;18.50;100512.00;;;;4990790;28;20626;-45
2022/05/30 07:59:15;;;;;;;2.17;1.60;;;17.20;56.40;18.50;100511.00;;;;4990807;28;20180;-46
2022/05/30 08:01:41;;;;;;;1.60;1.50;;;17.20;56.40;18.50;100504.00;;;;4991262;28;20251;-45
2022/05/30 08:04:12;;;;;;;2.30;1.80;;;17.20;56.30;18.50;100507.00;;;;4990583;28;20177;-44
2022/05/30 08:06:38;;;;;;;1.63;1.53;;;17.20;56.40;18.50;100515.00;;;;4990630;28;20247;-44
2022/05/30 08:09:04;;;;;;;2.17;1.60;;;17.20;56.40;18.50;100506.00;;;;4989641;28;20259;-43
2022/05/30 08:11:30;;;;;;;2.07;1.70;;;17.20;56.40;18.50;100514.00;;;;4990521;28;20198;-45
2022/05/30 08:13:56;;;;;;;2.00;1.60;;;17.20;56.40;18.50;100517.00;;;;4989478;28;20217;-46
2022/05/30 08:16:26;;;;;;;1.90;1.60;;;17.20;56.40;18.50;100502.00;;;;4990507;28;20173;-45
2022/05/30 08:18:52;;;;;;;2.87;1.80;;;17.20;56.30;18.50;100505.00;;;;4990265;28;20621;-45
2022/05/30 08:21:18;;;;;;;2.10;1.77;;;17.20;56.30;18.50;100500.00;;;;4989749;28;20347;-45
2022/05/30 08:23:43;;;;;;;2.50;1.80;;;17.20;56.40;18.50;100514.00;;;;4990340;28;20176;-45
2022/05/30 08:26:09;;;;;;;2.30;1.80;;;17.20;56.30;18.50;100507.00;;;;4989744;28;20172;-45
2022/05/30 08:28:35;;;;;;;2.53;1.80;;;17.20;56.40;18.50;100516.00;;;;4986002;28;20663;-45
2022/05/30 08:31:01;;;;;;;1.77;1.53;;;17.20;56.30;18.50;100511.00;;;;4991562;28;20200;-46
2022/05/30 08:33:27;;;;;;;1.80;1.70;;;17.20;56.40;18.50;100512.00;;;;4991669;28;20595;-45
2022/05/30 08:36:07;;;;;;;2.47;1.77;;;17.20;56.30;18.60;100516.00;;;;4991704;28;20196;-48
2022/05/30 08:38:34;;;;;;;2.10;1.57;;;17.20;56.30;18.60;100516.00;;;;4922875;28;20250;-45
2022/05/30 08:43:48;;;;;;;2.20;1.67;;;17.20;56.20;18.60;100524.00;;;;4977167;28;20201;-46
2022/05/30 08:46:36;;;;;;;2.93;1.70;;;17.20;56.30;18.30;100524.00;;;;4974480;28;20830;-45
2022/05/30 08:49:28;;;;;;;2.30;1.80;;;17.20;56.30;18.60;100528.00;;;;4991045;28;20169;-45
2022/05/30 08:52:29;;;;;;;1.63;1.53;;;17.20;56.30;18.60;100530.00;;;;4990350;28;20201;-45
2022/05/30 08:55:20;;;;;;;2.00;1.70;;;17.20;56.30;18.60;100533.00;;;;4982380;28;20214;-47
2022/05/30 08:58:06;;;;;;;2.53;1.90;;;17.20;56.30;18.60;100523.00;;;;4980894;28;20190;-45
2022/05/30 09:00:44;;;;;;;2.77;1.70;;;17.20;56.30;18.50;100529.00;;;;4989874;28;20210;-45
2022/05/30 09:03:24;;;;;;;2.43;1.80;;;17.30;56.40;18.60;100524.00;;;;4975281;28;20177;-44
2022/05/30 09:05:53;;;;;;;2.13;1.80;;;17.20;56.20;18.60;100525.00;;;;4990035;28;20247;-43
2022/05/30 09:08:27;;;;;;;1.70;1.60;;;17.30;56.40;18.60;100518.00;;;;4989764;28;20168;-43
2022/05/30 09:11:30;;;;;;;1.83;1.73;;;17.30;56.40;18.60;100522.00;;;;4974468;28;20331;-44
2022/05/30 09:13:57;;;;;;;2.80;1.70;;;17.30;56.30;18.60;100520.00;;;;4974029;28;20164;-44
2022/05/30 09:16:29;;;;;;;2.70;2.00;;;17.30;56.30;18.60;100524.00;;;;4973565;28;20179;-44
2022/05/30 09:18:55;;;;;;;3.23;1.90;;;17.30;56.40;18.60;100516.00;;;;4990566;28;20207;-45
2022/05/30 09:21:22;;;;;;;2.33;1.90;;;17.30;56.30;18.60;100529.00;;;;4990716;28;20708;-45
2022/05/30 09:23:47;;;;;;;2.67;1.70;;;17.30;56.30;18.60;100532.00;;;;4990796;28;20182;-44
2022/05/30 09:26:20;;;;;;;2.87;1.70;;;17.30;56.30;18.60;100526.00;;;;4989890;28;20523;-44
2022/05/30 09:28:47;;;;;;;2.23;1.93;;;17.30;56.40;18.60;100524.00;;;;4989656;28;20165;-45
2022/05/30 09:31:46;;;;;;;2.40;1.80;;;17.30;56.40;18.70;100514.00;;;;4990735;28;20271;-45
2022/05/30 09:34:41;;;;;;;2.60;2.00;;;17.30;56.40;18.70;100517.00;;;;4990826;28;20671;-44
2022/05/30 09:37:07;;;;;;;2.90;1.77;;;17.30;56.40;18.70;100527.00;;;;4988988;28;20185;-44
2022/05/30 09:39:46;;;;;;;2.53;1.90;;;17.30;56.40;18.70;100526.00;;;;4884737;28;20715;-44
2022/05/30 09:42:31;;;;;;;2.30;2.00;;;17.30;56.40;18.70;100522.00;;;;4968435;28;20173;-46
2022/05/30 09:45:25;;;;;;;2.33;2.00;;;17.30;56.40;18.70;100523.00;;;;4980542;28;20175;-46
2022/05/30 09:48:14;;;;;;;1.87;1.77;;;17.30;56.40;18.70;100531.00;;;;4989128;28;20192;-44
2022/05/30 09:50:51;;;;;;;1.90;1.80;;;17.40;56.60;18.70;100515.00;;;;4989979;28;20192;-46
2022/05/30 09:53:49;;;;;;;2.67;1.57;;;17.40;56.50;18.70;100535.00;;;;4990335;28;20179;-44
2022/05/30 09:56:19;;;;;;;2.23;2.00;;;17.40;56.40;18.70;100533.00;;;;4990193;28;20167;-45
2022/05/30 09:58:58;;;;;;;3.33;2.10;;;17.40;56.50;18.70;100542.00;;;;4988557;28;20200;-44
2022/05/30 10:01:25;;;;;;;1.93;1.70;;;17.40;56.50;18.70;100539.00;;;;4989894;28;20248;-45
2022/05/30 10:03:56;;;;;;;2.60;1.90;;;17.40;56.50;18.70;100535.00;;;;4990111;28;20165;-45
2022/05/30 10:06:27;;;;;;;2.00;1.90;;;17.40;56.50;18.80;100550.00;;;;4989111;28;20158;-43
2022/05/30 10:09:21;;;;;;;2.37;1.80;;;17.40;56.50;18.80;100539.00;;;;4989903;28;20168;-44
2022/05/30 10:11:54;;;;;;;2.80;2.10;;;17.40;56.50;18.80;100545.00;;;;4986603;28;20295;-47
2022/05/30 10:14:25;;;;;;;2.50;1.80;;;17.40;56.50;18.80;100537.00;;;;4988944;28;20256;-46
2022/05/30 10:16:53;;;;;;;2.47;2.10;;;17.40;56.60;18.80;100534.00;;;;4989896;28;20252;-45
2022/05/30 10:19:29;;;;;;;2.10;1.90;;;17.40;56.60;18.80;100535.00;;;;4972197;28;20164;-44
2022/05/30 10:28:52;;;;;;;2.23;2.00;;;17.50;56.60;18.80;100516.00;;;;4988465;28;20219;-45
2022/05/30 10:31:36;;;;;;;2.33;2.07;;;17.50;56.60;18.80;100518.00;;;;4991909;28;20295;-46
2022/05/30 10:34:12;;;;;;;2.33;2.07;;;17.50;56.50;18.80;100525.00;;;;4994369;28;20638;-44
2022/05/30 10:37:14;;;;;;;2.20;1.80;;;17.50;56.60;18.90;100536.00;;;;4968368;28;20623;-44
2022/05/30 10:40:29;;;;;;;3.20;2.10;;;17.50;56.60;18.90;100528.00;;;;4816231;28;20176;-45
2022/05/30 10:43:05;;;;;;;2.83;2.10;;;17.50;56.60;18.90;100532.00;;;;4979412;28;20206;-45
2022/05/30 10:46:01;;;;;;;2.20;2.00;;;17.50;56.60;18.90;100533.00;;;;4972088;28;20248;-45
2022/05/30 10:48:36;;;;;;;2.27;2.07;;;17.50;56.50;18.90;100536.00;;;;4973100;28;20765;-46
2022/05/30 10:51:16;;;;;;;2.43;1.93;;;17.50;56.60;18.90;100536.00;;;;4989151;28;20193;-45
2022/05/30 10:53:47;;;;;;;2.00;1.90;;;17.60;56.80;18.90;100531.00;;;;4972394;28;20535;-44
2022/05/30 10:56:26;;;;;;;3.57;2.10;;;17.60;56.90;18.90;100543.00;;;;4987921;28;20160;-45
2022/05/30 10:59:36;;;;;;;2.03;1.90;;;17.60;56.90;19.00;100538.00;;;;4987649;28;20568;-45
2022/05/30 11:02:44;;;;;;;2.47;1.90;;;17.60;56.90;19.00;100535.00;;;;4986049;28;20205;-45
2022/05/30 11:05:23;;;;;;;3.40;2.20;;;17.60;56.90;19.00;100539.00;;;;4987494;28;20193;-45
2022/05/30 11:08:06;;;;;;;2.57;2.13;;;17.60;56.90;19.00;100543.00;;;;4987682;28;20171;-44
2022/05/30 11:10:56;;;;;;;2.40;2.10;;;17.60;56.90;19.00;100545.00;;;;4988930;28;20213;-46
2022/05/30 11:13:43;;;;;;;4.53;2.07;;;17.60;56.90;19.00;100545.00;;;;4987940;28;20173;-44
2022/05/30 11:16:47;;;;;;;2.27;2.07;;;17.70;56.90;19.00;100536.00;;;;4988251;28;20196;-45
2022/05/30 11:19:35;;;;;;;2.27;2.00;;;17.70;56.90;19.00;100545.00;;;;4974133;28;20610;-45
2022/05/30 11:22:10;;;;;;;3.00;2.10;;;17.70;57.00;19.10;100539.00;;;;4988124;28;20300;-45